sensor_id;sensor_type;location;lat;lon;timestamp;P1;durP1;ratioP1;P2;durP2;ratioP2
67819;SDS011;54618;52.018;5.576;2023-07-31T00:00:13;11.45;;;0.90;;
67819;SDS011;54618;52.018;5.576;2023-07-31T00:02:39;6.65;;;0.80;;
67819;SDS011;54618;52.018;5.576;2023-07-31T00:05:08;4.03;;;1.05;;
67819;SDS011;54618;52.018;5.576;2023-07-31T00:07:33;2.88;;;1.20;;
67819;SDS011;54618;52.018;5.576;2023-07-31T00:09:59;4.28;;;1.60;;
67819;SDS011;54618;52.018;5.576;2023-07-31T00:12:24;4.68;;;1.40;;
67819;SDS011;54618;52.018;5.576;2023-07-31T00:14:50;2.28;;;1.25;;
67819;SDS011;54618;52.018;5.576;2023-07-31T00:17:16;2.53;;;1.42;;
67819;SDS011;54618;52.018;5.576;2023-07-31T00:19:42;2.80;;;1.42;;
67819;SDS011;54618;52.018;5.576;2023-07-31T00:22:08;2.65;;;1.70;;
67819;SDS011;54618;52.018;5.576;2023-07-31T00:24:33;3.92;;;2.10;;
67819;SDS011;54618;52.018;5.576;2023-07-31T00:26:59;8.15;;;2.30;;
67819;SDS011;54618;52.018;5.576;2023-07-31T00:29:25;6.28;;;2.60;;
67819;SDS011;54618;52.018;5.576;2023-07-31T00:31:50;6.25;;;2.78;;
67819;SDS011;54618;52.018;5.576;2023-07-31T00:34:16;9.85;;;3.28;;
67819;SDS011;54618;52.018;5.576;2023-07-31T00:36:41;10.40;;;3.90;;
67819;SDS011;54618;52.018;5.576;2023-07-31T00:39:07;11.30;;;4.13;;
67819;SDS011;54618;52.018;5.576;2023-07-31T00:41:32;16.63;;;5.22;;
67819;SDS011;54618;52.018;5.576;2023-07-31T00:43:58;21.83;;;5.90;;
67819;SDS011;54618;52.018;5.576;2023-07-31T00:46:23;24.20;;;5.53;;
67819;SDS011;54618;52.018;5.576;2023-07-31T00:48:49;24.63;;;5.85;;
67819;SDS011;54618;52.018;5.576;2023-07-31T00:51:15;30.08;;;7.20;;
67819;SDS011;54618;52.018;5.576;2023-07-31T00:53:41;23.55;;;5.97;;
67819;SDS011;54618;52.018;5.576;2023-07-31T00:56:08;22.27;;;6.20;;
67819;SDS011;54618;52.018;5.576;2023-07-31T00:58:35;28.70;;;7.85;;
67819;SDS011;54618;52.018;5.576;2023-07-31T01:01:00;23.38;;;6.15;;
67819;SDS011;54618;52.018;5.576;2023-07-31T01:03:26;23.83;;;6.07;;
67819;SDS011;54618;52.018;5.576;2023-07-31T01:06:04;22.70;;;6.13;;
67819;SDS011;54618;52.018;5.576;2023-07-31T01:09:02;23.98;;;6.03;;
67819;SDS011;54618;52.018;5.576;2023-07-31T01:11:38;20.98;;;6.65;;
67819;SDS011;54618;52.018;5.576;2023-07-31T01:14:11;20.20;;;6.70;;
67819;SDS011;54618;52.018;5.576;2023-07-31T01:16:37;22.30;;;5.93;;
67819;SDS011;54618;52.018;5.576;2023-07-31T01:19:02;22.67;;;7.03;;
67819;SDS011;54618;52.018;5.576;2023-07-31T01:27:02;20.98;;;5.78;;
67819;SDS011;54618;52.018;5.576;2023-07-31T01:30:15;25.85;;;6.43;;
67819;SDS011;54618;52.018;5.576;2023-07-31T01:32:48;20.35;;;5.85;;
67819;SDS011;54618;52.018;5.576;2023-07-31T01:35:16;22.38;;;6.30;;
67819;SDS011;54618;52.018;5.576;2023-07-31T01:37:45;16.90;;;5.45;;
67819;SDS011;54618;52.018;5.576;2023-07-31T01:40:11;25.45;;;6.40;;
67819;SDS011;54618;52.018;5.576;2023-07-31T01:42:36;19.52;;;6.20;;
67819;SDS011;54618;52.018;5.576;2023-07-31T01:45:02;22.00;;;6.40;;
67819;SDS011;54618;52.018;5.576;2023-07-31T01:47:28;20.55;;;5.57;;
67819;SDS011;54618;52.018;5.576;2023-07-31T01:49:53;23.65;;;5.70;;
67819;SDS011;54618;52.018;5.576;2023-07-31T01:52:19;26.40;;;5.88;;
67819;SDS011;54618;52.018;5.576;2023-07-31T01:54:44;24.77;;;5.68;;
67819;SDS011;54618;52.018;5.576;2023-07-31T01:57:10;18.65;;;5.40;;
67819;SDS011;54618;52.018;5.576;2023-07-31T01:59:36;22.33;;;5.60;;
67819;SDS011;54618;52.018;5.576;2023-07-31T02:02:02;17.83;;;5.55;;
67819;SDS011;54618;52.018;5.576;2023-07-31T02:04:30;22.25;;;6.13;;
67819;SDS011;54618;52.018;5.576;2023-07-31T02:06:55;16.50;;;5.20;;
67819;SDS011;54618;52.018;5.576;2023-07-31T02:09:21;13.15;;;3.90;;
67819;SDS011;54618;52.018;5.576;2023-07-31T02:11:46;11.68;;;4.10;;
67819;SDS011;54618;52.018;5.576;2023-07-31T02:14:12;12.95;;;3.75;;
67819;SDS011;54618;52.018;5.576;2023-07-31T02:16:37;12.82;;;3.65;;
67819;SDS011;54618;52.018;5.576;2023-07-31T02:19:03;12.23;;;3.60;;
67819;SDS011;54618;52.018;5.576;2023-07-31T02:21:28;7.88;;;3.25;;
67819;SDS011;54618;52.018;5.576;2023-07-31T02:23:54;13.60;;;3.70;;
67819;SDS011;54618;52.018;5.576;2023-07-31T02:26:19;13.88;;;3.35;;
67819;SDS011;54618;52.018;5.576;2023-07-31T02:28:45;14.27;;;3.58;;
67819;SDS011;54618;52.018;5.576;2023-07-31T02:31:13;13.10;;;3.70;;
67819;SDS011;54618;52.018;5.576;2023-07-31T02:33:39;15.10;;;4.28;;
67819;SDS011;54618;52.018;5.576;2023-07-31T02:36:07;13.27;;;4.03;;
67819;SDS011;54618;52.018;5.576;2023-07-31T02:38:33;16.27;;;4.47;;
67819;SDS011;54618;52.018;5.576;2023-07-31T02:40:58;15.85;;;4.68;;
67819;SDS011;54618;52.018;5.576;2023-07-31T02:43:24;16.20;;;4.47;;
67819;SDS011;54618;52.018;5.576;2023-07-31T02:45:53;17.40;;;4.80;;
67819;SDS011;54618;52.018;5.576;2023-07-31T02:48:19;19.00;;;5.38;;
67819;SDS011;54618;52.018;5.576;2023-07-31T02:50:44;15.73;;;5.03;;
67819;SDS011;54618;52.018;5.576;2023-07-31T02:53:11;16.85;;;5.15;;
67819;SDS011;54618;52.018;5.576;2023-07-31T02:55:36;15.18;;;4.88;;
67819;SDS011;54618;52.018;5.576;2023-07-31T02:58:02;17.23;;;5.18;;
67819;SDS011;54618;52.018;5.576;2023-07-31T03:00:27;18.80;;;5.30;;
67819;SDS011;54618;52.018;5.576;2023-07-31T03:02:53;18.02;;;5.68;;
67819;SDS011;54618;52.018;5.576;2023-07-31T03:05:18;21.85;;;5.13;;
67819;SDS011;54618;52.018;5.576;2023-07-31T03:07:44;15.68;;;5.00;;
67819;SDS011;54618;52.018;5.576;2023-07-31T03:10:09;24.02;;;5.63;;
67819;SDS011;54618;52.018;5.576;2023-07-31T03:12:39;19.60;;;5.78;;
67819;SDS011;54618;52.018;5.576;2023-07-31T03:15:11;25.88;;;6.13;;
67819;SDS011;54618;52.018;5.576;2023-07-31T03:17:36;18.40;;;5.10;;
67819;SDS011;54618;52.018;5.576;2023-07-31T03:20:03;22.75;;;5.68;;
67819;SDS011;54618;52.018;5.576;2023-07-31T03:22:29;18.30;;;5.40;;
67819;SDS011;54618;52.018;5.576;2023-07-31T03:24:54;17.67;;;5.30;;
67819;SDS011;54618;52.018;5.576;2023-07-31T03:27:20;18.77;;;5.45;;
67819;SDS011;54618;52.018;5.576;2023-07-31T03:29:45;20.00;;;5.38;;
67819;SDS011;54618;52.018;5.576;2023-07-31T03:32:11;17.25;;;5.22;;
67819;SDS011;54618;52.018;5.576;2023-07-31T03:34:36;21.10;;;5.22;;
67819;SDS011;54618;52.018;5.576;2023-07-31T03:37:02;20.33;;;5.18;;
67819;SDS011;54618;52.018;5.576;2023-07-31T03:39:29;18.75;;;5.63;;
67819;SDS011;54618;52.018;5.576;2023-07-31T03:41:55;16.88;;;5.20;;
67819;SDS011;54618;52.018;5.576;2023-07-31T03:44:20;19.08;;;5.35;;
67819;SDS011;54618;52.018;5.576;2023-07-31T03:46:46;19.27;;;5.20;;
67819;SDS011;54618;52.018;5.576;2023-07-31T03:49:12;20.27;;;5.65;;
67819;SDS011;54618;52.018;5.576;2023-07-31T03:51:37;20.05;;;5.20;;
67819;SDS011;54618;52.018;5.576;2023-07-31T03:54:03;18.63;;;5.40;;
67819;SDS011;54618;52.018;5.576;2023-07-31T03:56:28;21.05;;;5.30;;
67819;SDS011;54618;52.018;5.576;2023-07-31T03:58:54;20.33;;;5.47;;
67819;SDS011;54618;52.018;5.576;2023-07-31T04:01:19;16.30;;;4.93;;
67819;SDS011;54618;52.018;5.576;2023-07-31T04:03:45;17.70;;;4.95;;
67819;SDS011;54618;52.018;5.576;2023-07-31T04:06:10;23.15;;;5.57;;
67819;SDS011;54618;52.018;5.576;2023-07-31T04:08:36;19.48;;;5.18;;
67819;SDS011;54618;52.018;5.576;2023-07-31T04:11:01;20.05;;;5.25;;
67819;SDS011;54618;52.018;5.576;2023-07-31T04:13:29;20.42;;;4.72;;
67819;SDS011;54618;52.018;5.576;2023-07-31T04:15:54;24.02;;;5.20;;
67819;SDS011;54618;52.018;5.576;2023-07-31T04:18:20;18.65;;;5.00;;
67819;SDS011;54618;52.018;5.576;2023-07-31T04:20:45;20.77;;;5.57;;
67819;SDS011;54618;52.018;5.576;2023-07-31T04:23:11;17.30;;;5.75;;
67819;SDS011;54618;52.018;5.576;2023-07-31T04:25:37;19.33;;;5.13;;
67819;SDS011;54618;52.018;5.576;2023-07-31T04:28:02;17.23;;;4.95;;
67819;SDS011;54618;52.018;5.576;2023-07-31T04:30:28;14.32;;;4.32;;
67819;SDS011;54618;52.018;5.576;2023-07-31T04:32:53;22.95;;;5.38;;
67819;SDS011;54618;52.018;5.576;2023-07-31T04:35:19;15.45;;;4.97;;
67819;SDS011;54618;52.018;5.576;2023-07-31T04:37:44;13.82;;;4.63;;
67819;SDS011;54618;52.018;5.576;2023-07-31T04:40:13;17.02;;;4.93;;
67819;SDS011;54618;52.018;5.576;2023-07-31T04:42:39;18.48;;;5.13;;
67819;SDS011;54618;52.018;5.576;2023-07-31T04:45:08;13.32;;;4.72;;
67819;SDS011;54618;52.018;5.576;2023-07-31T04:47:34;19.95;;;5.18;;
67819;SDS011;54618;52.018;5.576;2023-07-31T04:49:59;21.58;;;5.22;;
67819;SDS011;54618;52.018;5.576;2023-07-31T04:52:25;20.00;;;4.60;;
67819;SDS011;54618;52.018;5.576;2023-07-31T04:54:51;19.30;;;5.07;;
67819;SDS011;54618;52.018;5.576;2023-07-31T04:57:16;16.73;;;4.70;;
67819;SDS011;54618;52.018;5.576;2023-07-31T04:59:42;18.52;;;5.28;;
67819;SDS011;54618;52.018;5.576;2023-07-31T05:02:08;14.48;;;4.50;;
67819;SDS011;54618;52.018;5.576;2023-07-31T05:04:34;16.42;;;4.60;;
67819;SDS011;54618;52.018;5.576;2023-07-31T05:06:59;20.13;;;4.90;;
67819;SDS011;54618;52.018;5.576;2023-07-31T05:09:25;20.20;;;4.80;;
67819;SDS011;54618;52.018;5.576;2023-07-31T05:11:50;16.92;;;4.55;;
67819;SDS011;54618;52.018;5.576;2023-07-31T05:14:16;14.98;;;4.65;;
67819;SDS011;54618;52.018;5.576;2023-07-31T05:16:41;15.95;;;3.88;;
67819;SDS011;54618;52.018;5.576;2023-07-31T05:19:07;13.43;;;3.80;;
67819;SDS011;54618;52.018;5.576;2023-07-31T05:21:32;10.90;;;3.75;;
67819;SDS011;54618;52.018;5.576;2023-07-31T05:23:58;15.30;;;3.60;;
67819;SDS011;54618;52.018;5.576;2023-07-31T05:26:24;14.23;;;4.30;;
67819;SDS011;54618;52.018;5.576;2023-07-31T05:28:49;13.10;;;4.32;;
67819;SDS011;54618;52.018;5.576;2023-07-31T05:31:15;15.02;;;4.05;;
67819;SDS011;54618;52.018;5.576;2023-07-31T05:33:40;13.48;;;4.07;;
67819;SDS011;54618;52.018;5.576;2023-07-31T05:36:06;12.68;;;4.32;;
67819;SDS011;54618;52.018;5.576;2023-07-31T05:38:32;14.13;;;4.50;;
67819;SDS011;54618;52.018;5.576;2023-07-31T05:40:58;16.40;;;4.60;;
67819;SDS011;54618;52.018;5.576;2023-07-31T05:43:23;14.30;;;4.47;;
67819;SDS011;54618;52.018;5.576;2023-07-31T05:45:50;14.15;;;4.68;;
67819;SDS011;54618;52.018;5.576;2023-07-31T05:48:16;16.58;;;5.05;;
67819;SDS011;54618;52.018;5.576;2023-07-31T05:50:43;12.43;;;5.28;;
67819;SDS011;54618;52.018;5.576;2023-07-31T05:53:08;13.43;;;4.90;;
67819;SDS011;54618;52.018;5.576;2023-07-31T05:55:35;10.23;;;4.20;;
67819;SDS011;54618;52.018;5.576;2023-07-31T05:58:01;14.60;;;5.00;;
67819;SDS011;54618;52.018;5.576;2023-07-31T06:00:26;14.32;;;4.88;;
67819;SDS011;54618;52.018;5.576;2023-07-31T06:02:52;12.73;;;4.60;;
67819;SDS011;54618;52.018;5.576;2023-07-31T06:05:21;10.18;;;4.47;;
67819;SDS011;54618;52.018;5.576;2023-07-31T06:07:47;14.07;;;4.75;;
67819;SDS011;54618;52.018;5.576;2023-07-31T06:10:12;12.15;;;4.85;;
67819;SDS011;54618;52.018;5.576;2023-07-31T06:12:38;12.40;;;4.40;;
67819;SDS011;54618;52.018;5.576;2023-07-31T06:15:04;12.68;;;4.47;;
67819;SDS011;54618;52.018;5.576;2023-07-31T06:17:30;10.55;;;4.00;;
67819;SDS011;54618;52.018;5.576;2023-07-31T06:19:56;12.18;;;3.88;;
67819;SDS011;54618;52.018;5.576;2023-07-31T06:22:22;9.35;;;3.30;;
67819;SDS011;54618;52.018;5.576;2023-07-31T06:24:47;10.70;;;3.75;;
67819;SDS011;54618;52.018;5.576;2023-07-31T06:27:13;11.15;;;3.60;;
67819;SDS011;54618;52.018;5.576;2023-07-31T06:29:38;8.95;;;3.42;;
67819;SDS011;54618;52.018;5.576;2023-07-31T06:32:04;8.25;;;3.20;;
67819;SDS011;54618;52.018;5.576;2023-07-31T06:34:30;8.13;;;3.63;;
67819;SDS011;54618;52.018;5.576;2023-07-31T06:36:55;10.02;;;3.45;;
67819;SDS011;54618;52.018;5.576;2023-07-31T06:39:21;11.43;;;3.25;;
67819;SDS011;54618;52.018;5.576;2023-07-31T06:41:47;9.27;;;3.50;;
67819;SDS011;54618;52.018;5.576;2023-07-31T06:44:13;8.15;;;3.08;;
67819;SDS011;54618;52.018;5.576;2023-07-31T06:46:38;7.38;;;2.88;;
67819;SDS011;54618;52.018;5.576;2023-07-31T06:49:04;6.70;;;2.50;;
67819;SDS011;54618;52.018;5.576;2023-07-31T06:51:29;7.68;;;3.28;;
67819;SDS011;54618;52.018;5.576;2023-07-31T06:53:56;6.55;;;2.55;;
67819;SDS011;54618;52.018;5.576;2023-07-31T06:56:22;7.15;;;2.85;;
67819;SDS011;54618;52.018;5.576;2023-07-31T06:58:48;7.35;;;2.80;;
67819;SDS011;54618;52.018;5.576;2023-07-31T07:01:14;7.40;;;2.20;;
67819;SDS011;54618;52.018;5.576;2023-07-31T07:03:39;6.85;;;2.17;;
67819;SDS011;54618;52.018;5.576;2023-07-31T07:06:07;3.95;;;2.20;;
67819;SDS011;54618;52.018;5.576;2023-07-31T07:08:33;5.43;;;2.30;;
67819;SDS011;54618;52.018;5.576;2023-07-31T07:10:58;4.47;;;2.10;;
67819;SDS011;54618;52.018;5.576;2023-07-31T07:13:24;5.15;;;2.13;;
67819;SDS011;54618;52.018;5.576;2023-07-31T07:15:50;4.85;;;2.13;;
67819;SDS011;54618;52.018;5.576;2023-07-31T07:18:16;5.05;;;2.05;;
67819;SDS011;54618;52.018;5.576;2023-07-31T07:20:52;5.00;;;2.10;;
67819;SDS011;54618;52.018;5.576;2023-07-31T07:23:18;3.38;;;1.88;;
67819;SDS011;54618;52.018;5.576;2023-07-31T07:25:45;4.78;;;2.33;;
67819;SDS011;54618;52.018;5.576;2023-07-31T07:28:13;2.90;;;1.90;;
67819;SDS011;54618;52.018;5.576;2023-07-31T07:30:39;5.75;;;2.20;;
67819;SDS011;54618;52.018;5.576;2023-07-31T07:33:05;5.05;;;2.10;;
67819;SDS011;54618;52.018;5.576;2023-07-31T07:35:34;4.18;;;2.25;;
67819;SDS011;54618;52.018;5.576;2023-07-31T07:38:00;4.95;;;2.15;;
67819;SDS011;54618;52.018;5.576;2023-07-31T07:40:26;4.78;;;2.40;;
67819;SDS011;54618;52.018;5.576;2023-07-31T07:42:52;4.32;;;2.30;;
67819;SDS011;54618;52.018;5.576;2023-07-31T07:45:17;5.78;;;2.33;;
67819;SDS011;54618;52.018;5.576;2023-07-31T07:47:43;4.88;;;2.60;;
67819;SDS011;54618;52.018;5.576;2023-07-31T07:50:09;4.32;;;2.40;;
67819;SDS011;54618;52.018;5.576;2023-07-31T07:52:35;4.82;;;2.58;;
67819;SDS011;54618;52.018;5.576;2023-07-31T07:55:00;5.72;;;2.97;;
67819;SDS011;54618;52.018;5.576;2023-07-31T07:57:26;5.10;;;2.70;;
67819;SDS011;54618;52.018;5.576;2023-07-31T07:59:52;5.30;;;2.90;;
67819;SDS011;54618;52.018;5.576;2023-07-31T08:02:17;5.13;;;2.65;;
67819;SDS011;54618;52.018;5.576;2023-07-31T08:04:43;5.10;;;2.65;;
67819;SDS011;54618;52.018;5.576;2023-07-31T08:07:12;7.10;;;2.22;;
67819;SDS011;54618;52.018;5.576;2023-07-31T08:09:37;5.57;;;2.60;;
67819;SDS011;54618;52.018;5.576;2023-07-31T08:12:04;3.75;;;2.13;;
67819;SDS011;54618;52.018;5.576;2023-07-31T08:14:30;4.95;;;2.50;;
67819;SDS011;54618;52.018;5.576;2023-07-31T08:16:55;4.50;;;2.47;;
67819;SDS011;54618;52.018;5.576;2023-07-31T08:19:21;4.75;;;2.30;;
67819;SDS011;54618;52.018;5.576;2023-07-31T08:21:47;4.65;;;2.15;;
67819;SDS011;54618;52.018;5.576;2023-07-31T08:24:12;4.82;;;2.50;;
67819;SDS011;54618;52.018;5.576;2023-07-31T08:26:38;4.43;;;2.50;;
67819;SDS011;54618;52.018;5.576;2023-07-31T08:29:04;5.13;;;2.83;;
67819;SDS011;54618;52.018;5.576;2023-07-31T08:31:29;4.70;;;2.50;;
67819;SDS011;54618;52.018;5.576;2023-07-31T08:33:55;4.53;;;2.72;;
67819;SDS011;54618;52.018;5.576;2023-07-31T08:36:21;5.75;;;2.60;;
67819;SDS011;54618;52.018;5.576;2023-07-31T08:38:47;4.50;;;2.47;;
67819;SDS011;54618;52.018;5.576;2023-07-31T08:41:12;3.83;;;2.35;;
67819;SDS011;54618;52.018;5.576;2023-07-31T08:43:38;4.35;;;2.40;;
67819;SDS011;54618;52.018;5.576;2023-07-31T08:46:04;4.18;;;2.40;;
67819;SDS011;54618;52.018;5.576;2023-07-31T08:48:31;3.67;;;2.22;;
67819;SDS011;54618;52.018;5.576;2023-07-31T08:50:57;4.53;;;2.35;;
67819;SDS011;54618;52.018;5.576;2023-07-31T08:53:22;4.55;;;2.10;;
67819;SDS011;54618;52.018;5.576;2023-07-31T08:55:48;3.70;;;2.00;;
67819;SDS011;54618;52.018;5.576;2023-07-31T08:58:14;4.00;;;2.20;;
67819;SDS011;54618;52.018;5.576;2023-07-31T09:00:42;2.60;;;1.95;;
67819;SDS011;54618;52.018;5.576;2023-07-31T09:03:10;4.13;;;2.38;;
67819;SDS011;54618;52.018;5.576;2023-07-31T09:05:43;3.78;;;2.20;;
67819;SDS011;54618;52.018;5.576;2023-07-31T09:08:10;3.88;;;2.38;;
67819;SDS011;54618;52.018;5.576;2023-07-31T09:10:41;4.50;;;2.50;;
67819;SDS011;54618;52.018;5.576;2023-07-31T09:13:07;3.85;;;2.50;;
67819;SDS011;54618;52.018;5.576;2023-07-31T09:15:33;3.97;;;2.60;;
67819;SDS011;54618;52.018;5.576;2023-07-31T09:18:00;4.47;;;2.58;;
67819;SDS011;54618;52.018;5.576;2023-07-31T09:20:27;3.70;;;2.67;;
67819;SDS011;54618;52.018;5.576;2023-07-31T09:22:53;4.00;;;2.80;;
67819;SDS011;54618;52.018;5.576;2023-07-31T09:25:21;4.72;;;2.90;;
67819;SDS011;54618;52.018;5.576;2023-07-31T09:27:57;5.40;;;2.85;;
67819;SDS011;54618;52.018;5.576;2023-07-31T09:30:27;4.78;;;3.17;;
67819;SDS011;54618;52.018;5.576;2023-07-31T09:33:03;6.22;;;3.22;;
67819;SDS011;54618;52.018;5.576;2023-07-31T09:35:32;5.40;;;3.83;;
67819;SDS011;54618;52.018;5.576;2023-07-31T09:38:03;6.43;;;3.83;;
67819;SDS011;54618;52.018;5.576;2023-07-31T09:40:35;6.65;;;4.13;;
67819;SDS011;54618;52.018;5.576;2023-07-31T09:43:05;7.97;;;3.92;;
67819;SDS011;54618;52.018;5.576;2023-07-31T09:48:02;9.90;;;4.63;;
67819;SDS011;54618;52.018;5.576;2023-07-31T09:50:31;7.25;;;4.88;;
67819;SDS011;54618;52.018;5.576;2023-07-31T09:52:57;7.43;;;4.38;;
67819;SDS011;54618;52.018;5.576;2023-07-31T09:55:23;9.18;;;4.53;;
67819;SDS011;54618;52.018;5.576;2023-07-31T09:57:49;9.50;;;4.93;;
67819;SDS011;54618;52.018;5.576;2023-07-31T10:00:16;7.72;;;4.70;;
67819;SDS011;54618;52.018;5.576;2023-07-31T10:02:46;9.77;;;4.97;;
67819;SDS011;54618;52.018;5.576;2023-07-31T10:05:13;6.32;;;4.55;;
67819;SDS011;54618;52.018;5.576;2023-07-31T10:07:43;9.05;;;5.57;;
67819;SDS011;54618;52.018;5.576;2023-07-31T10:10:16;11.77;;;5.40;;
67819;SDS011;54618;52.018;5.576;2023-07-31T10:12:45;9.55;;;5.68;;
67819;SDS011;54618;52.018;5.576;2023-07-31T10:15:16;9.75;;;5.70;;
67819;SDS011;54618;52.018;5.576;2023-07-31T10:17:42;9.82;;;5.90;;
67819;SDS011;54618;52.018;5.576;2023-07-31T10:20:09;9.43;;;5.75;;
67819;SDS011;54618;52.018;5.576;2023-07-31T10:22:36;8.38;;;5.53;;
67819;SDS011;54618;52.018;5.576;2023-07-31T10:25:03;10.00;;;5.95;;
67819;SDS011;54618;52.018;5.576;2023-07-31T10:27:29;8.02;;;5.20;;
67819;SDS011;54618;52.018;5.576;2023-07-31T10:29:56;11.27;;;5.40;;
67819;SDS011;54618;52.018;5.576;2023-07-31T10:32:23;10.80;;;5.70;;
67819;SDS011;54618;52.018;5.576;2023-07-31T10:34:49;9.45;;;5.53;;
67819;SDS011;54618;52.018;5.576;2023-07-31T10:40:37;10.40;;;5.55;;
67819;SDS011;54618;52.018;5.576;2023-07-31T10:43:03;8.75;;;4.68;;
67819;SDS011;54618;52.018;5.576;2023-07-31T10:45:31;10.98;;;5.28;;
67819;SDS011;54618;52.018;5.576;2023-07-31T10:48:02;6.35;;;4.20;;
67819;SDS011;54618;52.018;5.576;2023-07-31T10:50:38;7.35;;;4.47;;
67819;SDS011;54618;52.018;5.576;2023-07-31T10:53:24;12.02;;;4.90;;
67819;SDS011;54618;52.018;5.576;2023-07-31T10:56:00;8.15;;;4.63;;
67819;SDS011;54618;52.018;5.576;2023-07-31T10:58:30;8.20;;;4.20;;
67819;SDS011;54618;52.018;5.576;2023-07-31T11:01:00;6.25;;;4.18;;
67819;SDS011;54618;52.018;5.576;2023-07-31T11:03:47;8.68;;;4.40;;
67819;SDS011;54618;52.018;5.576;2023-07-31T11:06:14;7.10;;;4.20;;
67819;SDS011;54618;52.018;5.576;2023-07-31T11:08:44;6.93;;;4.20;;
67819;SDS011;54618;52.018;5.576;2023-07-31T11:11:14;5.63;;;4.00;;
67819;SDS011;54618;52.018;5.576;2023-07-31T11:13:48;6.45;;;3.88;;
67819;SDS011;54618;52.018;5.576;2023-07-31T11:16:20;5.97;;;3.15;;
67819;SDS011;54618;52.018;5.576;2023-07-31T11:18:47;4.63;;;2.80;;
67819;SDS011;54618;52.018;5.576;2023-07-31T11:21:14;6.57;;;3.20;;
67819;SDS011;54618;52.018;5.576;2023-07-31T11:23:56;6.80;;;3.70;;
67819;SDS011;54618;52.018;5.576;2023-07-31T11:26:23;7.15;;;3.55;;
67819;SDS011;54618;52.018;5.576;2023-07-31T11:28:49;6.22;;;3.67;;
67819;SDS011;54618;52.018;5.576;2023-07-31T11:31:16;7.97;;;4.20;;
67819;SDS011;54618;52.018;5.576;2023-07-31T11:33:42;8.02;;;3.85;;
67819;SDS011;54618;52.018;5.576;2023-07-31T11:36:18;5.97;;;3.67;;
67819;SDS011;54618;52.018;5.576;2023-07-31T11:38:45;6.18;;;3.40;;
67819;SDS011;54618;52.018;5.576;2023-07-31T11:41:14;8.60;;;3.97;;
67819;SDS011;54618;52.018;5.576;2023-07-31T11:43:45;6.13;;;3.42;;
67819;SDS011;54618;52.018;5.576;2023-07-31T11:46:12;4.60;;;3.25;;
67819;SDS011;54618;52.018;5.576;2023-07-31T11:48:39;6.90;;;4.07;;
67819;SDS011;54618;52.018;5.576;2023-07-31T11:51:09;6.47;;;3.67;;
67819;SDS011;54618;52.018;5.576;2023-07-31T11:53:54;5.40;;;3.30;;
67819;SDS011;54618;52.018;5.576;2023-07-31T11:56:23;6.13;;;3.15;;
67819;SDS011;54618;52.018;5.576;2023-07-31T11:58:53;7.40;;;3.47;;
67819;SDS011;54618;52.018;5.576;2023-07-31T12:01:23;5.82;;;3.10;;
67819;SDS011;54618;52.018;5.576;2023-07-31T12:03:49;6.82;;;3.33;;
67819;SDS011;54618;52.018;5.576;2023-07-31T12:06:15;5.15;;;3.10;;
67819;SDS011;54618;52.018;5.576;2023-07-31T12:08:44;4.30;;;2.90;;
67819;SDS011;54618;52.018;5.576;2023-07-31T12:11:10;5.60;;;3.40;;
67819;SDS011;54618;52.018;5.576;2023-07-31T12:13:39;5.03;;;3.10;;
67819;SDS011;54618;52.018;5.576;2023-07-31T12:16:05;4.57;;;2.83;;
67819;SDS011;54618;52.018;5.576;2023-07-31T12:18:37;5.75;;;3.00;;
67819;SDS011;54618;52.018;5.576;2023-07-31T12:21:04;4.53;;;2.78;;
67819;SDS011;54618;52.018;5.576;2023-07-31T12:23:32;4.50;;;2.90;;
67819;SDS011;54618;52.018;5.576;2023-07-31T12:28:30;5.60;;;2.63;;
67819;SDS011;54618;52.018;5.576;2023-07-31T12:31:00;4.10;;;2.75;;
67819;SDS011;54618;52.018;5.576;2023-07-31T12:36:30;5.93;;;3.03;;
67819;SDS011;54618;52.018;5.576;2023-07-31T12:39:00;4.30;;;2.97;;
67819;SDS011;54618;52.018;5.576;2023-07-31T12:41:26;4.60;;;2.97;;
67819;SDS011;54618;52.018;5.576;2023-07-31T12:43:51;4.25;;;3.38;;
67819;SDS011;54618;52.018;5.576;2023-07-31T12:46:17;4.93;;;3.83;;
67819;SDS011;54618;52.018;5.576;2023-07-31T12:48:43;4.55;;;3.47;;
67819;SDS011;54618;52.018;5.576;2023-07-31T12:51:09;6.35;;;3.95;;
67819;SDS011;54618;52.018;5.576;2023-07-31T12:53:35;6.40;;;4.00;;
67819;SDS011;54618;52.018;5.576;2023-07-31T12:56:00;5.85;;;4.40;;
67819;SDS011;54618;52.018;5.576;2023-07-31T12:58:26;5.88;;;4.65;;
67819;SDS011;54618;52.018;5.576;2023-07-31T13:00:52;6.25;;;4.28;;
67819;SDS011;54618;52.018;5.576;2023-07-31T13:03:18;5.80;;;4.43;;
67819;SDS011;54618;52.018;5.576;2023-07-31T13:05:43;5.38;;;4.20;;
67819;SDS011;54618;52.018;5.576;2023-07-31T13:08:09;6.35;;;4.78;;
67819;SDS011;54618;52.018;5.576;2023-07-31T13:10:34;7.57;;;4.80;;
67819;SDS011;54618;52.018;5.576;2023-07-31T13:13:00;6.25;;;4.00;;
67819;SDS011;54618;52.018;5.576;2023-07-31T13:15:26;5.72;;;3.97;;
67819;SDS011;54618;52.018;5.576;2023-07-31T13:17:51;7.03;;;4.15;;
67819;SDS011;54618;52.018;5.576;2023-07-31T13:20:17;8.45;;;4.90;;
67819;SDS011;54618;52.018;5.576;2023-07-31T13:22:42;7.88;;;4.28;;
67819;SDS011;54618;52.018;5.576;2023-07-31T13:25:08;6.20;;;4.40;;
67819;SDS011;54618;52.018;5.576;2023-07-31T13:27:34;7.35;;;4.43;;
67819;SDS011;54618;52.018;5.576;2023-07-31T13:30:00;6.50;;;4.10;;
67819;SDS011;54618;52.018;5.576;2023-07-31T13:32:26;7.57;;;4.57;;
67819;SDS011;54618;52.018;5.576;2023-07-31T13:34:51;7.53;;;4.30;;
67819;SDS011;54618;52.018;5.576;2023-07-31T13:37:17;7.85;;;4.72;;
67819;SDS011;54618;52.018;5.576;2023-07-31T13:39:43;6.82;;;4.88;;
67819;SDS011;54618;52.018;5.576;2023-07-31T13:42:09;6.90;;;4.65;;
67819;SDS011;54618;52.018;5.576;2023-07-31T13:44:37;9.02;;;4.70;;
67819;SDS011;54618;52.018;5.576;2023-07-31T13:47:04;8.60;;;4.65;;
67819;SDS011;54618;52.018;5.576;2023-07-31T13:49:29;7.75;;;4.68;;
67819;SDS011;54618;52.018;5.576;2023-07-31T13:51:59;6.65;;;5.00;;
67819;SDS011;54618;52.018;5.576;2023-07-31T13:54:25;10.30;;;5.10;;
67819;SDS011;54618;52.018;5.576;2023-07-31T13:56:51;7.15;;;4.75;;
67819;SDS011;54618;52.018;5.576;2023-07-31T13:59:17;7.72;;;5.30;;
67819;SDS011;54618;52.018;5.576;2023-07-31T14:01:43;10.25;;;5.68;;
67819;SDS011;54618;52.018;5.576;2023-07-31T14:04:09;8.13;;;5.65;;
67819;SDS011;54618;52.018;5.576;2023-07-31T14:06:35;9.27;;;5.93;;
67819;SDS011;54618;52.018;5.576;2023-07-31T14:09:01;10.40;;;6.35;;
67819;SDS011;54618;52.018;5.576;2023-07-31T14:11:27;9.00;;;5.72;;
67819;SDS011;54618;52.018;5.576;2023-07-31T14:13:53;9.02;;;6.03;;
67819;SDS011;54618;52.018;5.576;2023-07-31T14:16:18;10.43;;;5.72;;
67819;SDS011;54618;52.018;5.576;2023-07-31T14:18:44;13.55;;;5.78;;
67819;SDS011;54618;52.018;5.576;2023-07-31T14:21:12;11.57;;;5.90;;
67819;SDS011;54618;52.018;5.576;2023-07-31T14:23:39;11.10;;;5.72;;
67819;SDS011;54618;52.018;5.576;2023-07-31T14:26:04;10.88;;;5.05;;
67819;SDS011;54618;52.018;5.576;2023-07-31T14:28:30;9.05;;;5.28;;
67819;SDS011;54618;52.018;5.576;2023-07-31T14:30:56;11.23;;;5.20;;
67819;SDS011;54618;52.018;5.576;2023-07-31T14:33:21;8.52;;;4.60;;
67819;SDS011;54618;52.018;5.576;2023-07-31T14:35:47;10.60;;;4.80;;
67819;SDS011;54618;52.018;5.576;2023-07-31T14:38:12;10.18;;;4.70;;
67819;SDS011;54618;52.018;5.576;2023-07-31T14:40:42;6.00;;;3.72;;
67819;SDS011;54618;52.018;5.576;2023-07-31T14:43:07;6.32;;;3.83;;
67819;SDS011;54618;52.018;5.576;2023-07-31T14:45:35;7.45;;;4.03;;
67819;SDS011;54618;52.018;5.576;2023-07-31T14:48:01;7.30;;;3.90;;
67819;SDS011;54618;52.018;5.576;2023-07-31T14:50:27;7.80;;;4.00;;
67819;SDS011;54618;52.018;5.576;2023-07-31T14:52:53;8.10;;;4.05;;
67819;SDS011;54618;52.018;5.576;2023-07-31T14:55:19;7.38;;;4.03;;